Dillon, CO (80435)

9:06 PM MDT on August 23, 2016 (GMT -0600)
| | Change Station

Elev -9999 ft 0.00 °N, 0.00 °E | Updated

Thunderstorm
Thunderstorm
46 °F
Feels Like 43 °F
N
6
Wind Variable Wind from SSW
Gusts mph

Today
High -- | Low -- °F
--% Chance of Precip.
Yesterday
High -- | Low -- °F
Precip. -- in
Pressure 30.11 in
Visibility 2.5 miles
Clouds Few 800 ft
Mostly Cloudy 2200 ft
Overcast 2800 ft
Windchill 43 °F
Dew Point 37 °F
Humidity 71%
Rainfall --
Snow Depth Not available.
6:24 AM 7:47 PM
Waning Gibbous, 62% visible
METAR KLXV 240253Z AUTO 00000KT 2 1/2SM RA BR FEW008 BKN022 OVC028 06/04 A3050 RMK AO2 SLP195 P0017 60030 T00560044 52009
Pressure 30.11 in
Visibility 2.5 miles
Clouds Few 800 ft
Mostly Cloudy 2200 ft
Overcast 2800 ft
Windchill 43 °F
Dew Point 37 °F
Humidity 71%
Rainfall --
Snow Depth Not available.
6:24 AM 7:47 PM
Waning Gibbous, 62% visible
METAR KLXV 240253Z AUTO 00000KT 2 1/2SM RA BR FEW008 BKN022 OVC028 06/04 A3050 RMK AO2 SLP195 P0017 60030 T00560044 52009

10-Day Weather Forecast

Almanac

Astronomy

Aug. 23, 2016 Rise Set
Actual Time
Civil Twilight
Nautical Twilight
Astronomical Twilight
Moon
Length of Visible Light
Length of Day
Tomorrow will be .
, % of the Moon is Illuminated

Today's Extremes

State Highs State Lows

Community

WunderPhotos

Upload Photos

1,934,538 photos uploaded!

WunderBlog® & News

Nearby

Air Quality

  Air Quality AQ Index Pollutant
Not available.

Snow Depth

Station Depth Elevation

Earthquake Activity

City Distance Mag. Time & Date
Minimum magnitude displayed is 2.5.

Coastal Water Temperatures

Place Temperature

Stations

Nearby Weather Stations

Station Location Temp. Windchill Dew Point Humidity Wind Precip. Elev Updated Type
                   

Watches & Warnings

There are currently no watches in effect.